sensor_id;sensor_type;location;lat;lon;timestamp;P1;durP1;ratioP1;P2;durP2;ratioP2
32032;SDS011;31720;52.638;9.216;2023-10-09T00:02:14;1.15;;;0.70;;
32032;SDS011;31720;52.638;9.216;2023-10-09T00:05:16;1.63;;;0.80;;
32032;SDS011;31720;52.638;9.216;2023-10-09T00:08:27;1.42;;;0.90;;
32032;SDS011;31720;52.638;9.216;2023-10-09T00:11:31;2.53;;;1.30;;
32032;SDS011;31720;52.638;9.216;2023-10-09T00:14:38;1.52;;;0.70;;
32032;SDS011;31720;52.638;9.216;2023-10-09T00:17:40;3.08;;;0.68;;
32032;SDS011;31720;52.638;9.216;2023-10-09T00:20:48;3.25;;;0.82;;
32032;SDS011;31720;52.638;9.216;2023-10-09T00:23:54;2.83;;;0.82;;
32032;SDS011;31720;52.638;9.216;2023-10-09T00:26:59;1.85;;;0.73;;
32032;SDS011;31720;52.638;9.216;2023-10-09T00:30:13;1.73;;;0.93;;
32032;SDS011;31720;52.638;9.216;2023-10-09T00:33:17;4.63;;;0.85;;
32032;SDS011;31720;52.638;9.216;2023-10-09T00:36:23;3.20;;;0.90;;
32032;SDS011;31720;52.638;9.216;2023-10-09T00:39:28;2.28;;;0.85;;
32032;SDS011;31720;52.638;9.216;2023-10-09T00:42:43;1.63;;;0.82;;
32032;SDS011;31720;52.638;9.216;2023-10-09T00:45:44;3.15;;;0.73;;
32032;SDS011;31720;52.638;9.216;2023-10-09T00:48:52;4.13;;;1.00;;
32032;SDS011;31720;52.638;9.216;2023-10-09T00:51:57;3.03;;;1.00;;
32032;SDS011;31720;52.638;9.216;2023-10-09T00:54:58;1.95;;;1.00;;
32032;SDS011;31720;52.638;9.216;2023-10-09T00:58:05;1.27;;;0.88;;
32032;SDS011;31720;52.638;9.216;2023-10-09T01:01:12;1.75;;;0.88;;
32032;SDS011;31720;52.638;9.216;2023-10-09T01:04:16;5.30;;;0.90;;
32032;SDS011;31720;52.638;9.216;2023-10-09T01:07:18;3.97;;;0.77;;
32032;SDS011;31720;52.638;9.216;2023-10-09T01:10:25;0.98;;;0.60;;
32032;SDS011;31720;52.638;9.216;2023-10-09T01:13:34;4.67;;;0.93;;
32032;SDS011;31720;52.638;9.216;2023-10-09T01:16:52;3.05;;;0.88;;
32032;SDS011;31720;52.638;9.216;2023-10-09T01:19:55;3.10;;;1.08;;
32032;SDS011;31720;52.638;9.216;2023-10-09T01:23:01;4.30;;;1.40;;
32032;SDS011;31720;52.638;9.216;2023-10-09T01:26:03;3.38;;;0.90;;
32032;SDS011;31720;52.638;9.216;2023-10-09T01:29:04;2.80;;;0.90;;
32032;SDS011;31720;52.638;9.216;2023-10-09T01:32:10;3.28;;;0.90;;
32032;SDS011;31720;52.638;9.216;2023-10-09T01:35:16;3.63;;;0.90;;
32032;SDS011;31720;52.638;9.216;2023-10-09T01:38:22;4.03;;;1.05;;
32032;SDS011;31720;52.638;9.216;2023-10-09T01:41:41;5.80;;;1.08;;
32032;SDS011;31720;52.638;9.216;2023-10-09T01:44:46;2.78;;;0.93;;
32032;SDS011;31720;52.638;9.216;2023-10-09T01:47:48;3.22;;;0.90;;
32032;SDS011;31720;52.638;9.216;2023-10-09T01:50:53;3.78;;;0.73;;
32032;SDS011;31720;52.638;9.216;2023-10-09T01:53:56;2.88;;;0.75;;
32032;SDS011;31720;52.638;9.216;2023-10-09T01:56:59;1.83;;;1.00;;
32032;SDS011;31720;52.638;9.216;2023-10-09T02:00:06;5.22;;;1.10;;
32032;SDS011;31720;52.638;9.216;2023-10-09T02:03:09;1.40;;;0.80;;
32032;SDS011;31720;52.638;9.216;2023-10-09T02:06:13;1.63;;;0.73;;
32032;SDS011;31720;52.638;9.216;2023-10-09T02:09:33;0.70;;;0.70;;
32032;SDS011;31720;52.638;9.216;2023-10-09T02:12:35;3.88;;;1.35;;
32032;SDS011;31720;52.638;9.216;2023-10-09T02:15:37;3.80;;;1.13;;
32032;SDS011;31720;52.638;9.216;2023-10-09T02:18:51;1.35;;;0.90;;
32032;SDS011;31720;52.638;9.216;2023-10-09T02:21:56;1.85;;;1.05;;
32032;SDS011;31720;52.638;9.216;2023-10-09T02:25:00;2.90;;;0.90;;
32032;SDS011;31720;52.638;9.216;2023-10-09T02:28:05;6.57;;;1.10;;
32032;SDS011;31720;52.638;9.216;2023-10-09T02:31:10;3.33;;;0.90;;
32032;SDS011;31720;52.638;9.216;2023-10-09T02:34:13;3.28;;;1.08;;
32032;SDS011;31720;52.638;9.216;2023-10-09T02:37:16;3.22;;;1.20;;
32032;SDS011;31720;52.638;9.216;2023-10-09T02:40:27;1.77;;;0.98;;
32032;SDS011;31720;52.638;9.216;2023-10-09T02:43:33;1.10;;;0.80;;
32032;SDS011;31720;52.638;9.216;2023-10-09T02:46:44;3.33;;;0.93;;
32032;SDS011;31720;52.638;9.216;2023-10-09T02:49:46;2.15;;;0.93;;
32032;SDS011;31720;52.638;9.216;2023-10-09T02:52:49;4.07;;;1.33;;
32032;SDS011;31720;52.638;9.216;2023-10-09T02:56:00;1.33;;;0.90;;
32032;SDS011;31720;52.638;9.216;2023-10-09T02:59:12;1.58;;;0.90;;
32032;SDS011;31720;52.638;9.216;2023-10-09T03:02:14;3.13;;;0.98;;
32032;SDS011;31720;52.638;9.216;2023-10-09T03:05:15;4.25;;;1.23;;
32032;SDS011;31720;52.638;9.216;2023-10-09T03:08:17;3.20;;;1.20;;
32032;SDS011;31720;52.638;9.216;2023-10-09T03:11:20;4.97;;;1.40;;
32032;SDS011;31720;52.638;9.216;2023-10-09T03:14:23;4.85;;;1.50;;
32032;SDS011;31720;52.638;9.216;2023-10-09T03:17:26;2.30;;;1.00;;
32032;SDS011;31720;52.638;9.216;2023-10-09T03:20:27;1.92;;;0.95;;
32032;SDS011;31720;52.638;9.216;2023-10-09T03:23:30;6.60;;;0.98;;
32032;SDS011;31720;52.638;9.216;2023-10-09T03:26:33;4.05;;;1.40;;
32032;SDS011;31720;52.638;9.216;2023-10-09T03:29:35;2.88;;;1.17;;
32032;SDS011;31720;52.638;9.216;2023-10-09T03:32:37;1.25;;;0.90;;
32032;SDS011;31720;52.638;9.216;2023-10-09T03:35:38;2.20;;;1.10;;
32032;SDS011;31720;52.638;9.216;2023-10-09T03:38:40;3.55;;;1.40;;
32032;SDS011;31720;52.638;9.216;2023-10-09T03:41:44;3.10;;;0.90;;
32032;SDS011;31720;52.638;9.216;2023-10-09T03:44:47;2.28;;;1.23;;
32032;SDS011;31720;52.638;9.216;2023-10-09T03:47:52;3.25;;;1.10;;
32032;SDS011;31720;52.638;9.216;2023-10-09T03:51:01;4.25;;;1.10;;
32032;SDS011;31720;52.638;9.216;2023-10-09T03:54:09;7.65;;;1.42;;
32032;SDS011;31720;52.638;9.216;2023-10-09T03:57:11;4.63;;;1.33;;
32032;SDS011;31720;52.638;9.216;2023-10-09T04:00:14;3.85;;;1.10;;
32032;SDS011;31720;52.638;9.216;2023-10-09T04:03:23;2.30;;;1.23;;
32032;SDS011;31720;52.638;9.216;2023-10-09T04:06:25;10.05;;;1.45;;
32032;SDS011;31720;52.638;9.216;2023-10-09T04:09:30;4.35;;;1.77;;
32032;SDS011;31720;52.638;9.216;2023-10-09T04:12:45;2.47;;;1.60;;
32032;SDS011;31720;52.638;9.216;2023-10-09T04:15:49;8.98;;;2.80;;
32032;SDS011;31720;52.638;9.216;2023-10-09T04:18:53;6.28;;;2.05;;
32032;SDS011;31720;52.638;9.216;2023-10-09T04:21:56;10.38;;;2.40;;
32032;SDS011;31720;52.638;9.216;2023-10-09T04:24:58;7.30;;;3.22;;
32032;SDS011;31720;52.638;9.216;2023-10-09T04:28:01;5.43;;;2.83;;
32032;SDS011;31720;52.638;9.216;2023-10-09T04:34:14;6.03;;;2.90;;
32032;SDS011;31720;52.638;9.216;2023-10-09T04:37:34;9.48;;;3.70;;
32032;SDS011;31720;52.638;9.216;2023-10-09T04:40:37;10.50;;;4.25;;
32032;SDS011;31720;52.638;9.216;2023-10-09T04:43:52;10.82;;;4.25;;
32032;SDS011;31720;52.638;9.216;2023-10-09T04:47:03;20.02;;;5.55;;
32032;SDS011;31720;52.638;9.216;2023-10-09T04:50:19;13.00;;;5.45;;
32032;SDS011;31720;52.638;9.216;2023-10-09T04:53:39;15.15;;;5.40;;
32032;SDS011;31720;52.638;9.216;2023-10-09T04:56:48;21.70;;;6.05;;
32032;SDS011;31720;52.638;9.216;2023-10-09T04:59:56;22.63;;;6.90;;
32032;SDS011;31720;52.638;9.216;2023-10-09T05:02:59;27.20;;;7.40;;
32032;SDS011;31720;52.638;9.216;2023-10-09T05:06:07;25.95;;;8.93;;
32032;SDS011;31720;52.638;9.216;2023-10-09T05:09:22;30.95;;;9.95;;
32032;SDS011;31720;52.638;9.216;2023-10-09T05:12:24;30.30;;;9.45;;
32032;SDS011;31720;52.638;9.216;2023-10-09T05:15:28;39.85;;;12.93;;
32032;SDS011;31720;52.638;9.216;2023-10-09T05:18:34;34.95;;;11.25;;
32032;SDS011;31720;52.638;9.216;2023-10-09T05:21:37;41.78;;;11.82;;
32032;SDS011;31720;52.638;9.216;2023-10-09T05:24:44;36.28;;;12.75;;
32032;SDS011;31720;52.638;9.216;2023-10-09T05:27:47;42.25;;;12.98;;
32032;SDS011;31720;52.638;9.216;2023-10-09T05:30:52;51.88;;;12.35;;
32032;SDS011;31720;52.638;9.216;2023-10-09T05:34:06;42.40;;;13.35;;
32032;SDS011;31720;52.638;9.216;2023-10-09T05:37:08;51.70;;;14.60;;
32032;SDS011;31720;52.638;9.216;2023-10-09T05:40:22;40.35;;;13.07;;
32032;SDS011;31720;52.638;9.216;2023-10-09T05:43:31;38.23;;;12.93;;
32032;SDS011;31720;52.638;9.216;2023-10-09T05:46:51;42.33;;;14.63;;
32032;SDS011;31720;52.638;9.216;2023-10-09T05:50:23;46.80;;;13.95;;
32032;SDS011;31720;52.638;9.216;2023-10-09T05:53:38;34.78;;;11.88;;
32032;SDS011;31720;52.638;9.216;2023-10-09T05:56:53;45.15;;;13.68;;
32032;SDS011;31720;52.638;9.216;2023-10-09T06:00:12;46.55;;;15.20;;
32032;SDS011;31720;52.638;9.216;2023-10-09T06:03:34;38.88;;;13.85;;
32032;SDS011;31720;52.638;9.216;2023-10-09T06:06:48;49.42;;;14.23;;
32032;SDS011;31720;52.638;9.216;2023-10-09T06:09:56;62.92;;;15.30;;
32032;SDS011;31720;52.638;9.216;2023-10-09T06:12:57;45.72;;;15.05;;
32032;SDS011;31720;52.638;9.216;2023-10-09T06:16:04;42.13;;;14.55;;
32032;SDS011;31720;52.638;9.216;2023-10-09T06:19:33;44.88;;;16.08;;
32032;SDS011;31720;52.638;9.216;2023-10-09T06:22:43;46.60;;;14.80;;
32032;SDS011;31720;52.638;9.216;2023-10-09T06:26:15;52.33;;;15.10;;
32032;SDS011;31720;52.638;9.216;2023-10-09T06:29:26;49.28;;;13.93;;
32032;SDS011;31720;52.638;9.216;2023-10-09T06:32:38;48.97;;;15.15;;
32032;SDS011;31720;52.638;9.216;2023-10-09T06:35:50;42.38;;;15.55;;
32032;SDS011;31720;52.638;9.216;2023-10-09T06:38:55;36.78;;;14.95;;
32032;SDS011;31720;52.638;9.216;2023-10-09T06:42:17;54.58;;;15.82;;
32032;SDS011;31720;52.638;9.216;2023-10-09T06:45:34;41.17;;;14.98;;
32032;SDS011;31720;52.638;9.216;2023-10-09T06:48:43;50.95;;;15.02;;
32032;SDS011;31720;52.638;9.216;2023-10-09T06:51:57;43.20;;;14.15;;
32032;SDS011;31720;52.638;9.216;2023-10-09T06:55:13;36.97;;;12.73;;
32032;SDS011;31720;52.638;9.216;2023-10-09T06:58:20;47.92;;;14.93;;
32032;SDS011;31720;52.638;9.216;2023-10-09T07:01:27;40.25;;;14.25;;
32032;SDS011;31720;52.638;9.216;2023-10-09T07:04:42;47.35;;;15.35;;
32032;SDS011;31720;52.638;9.216;2023-10-09T07:07:56;49.53;;;13.88;;
32032;SDS011;31720;52.638;9.216;2023-10-09T07:11:17;41.90;;;14.93;;
32032;SDS011;31720;52.638;9.216;2023-10-09T07:14:38;44.50;;;15.40;;
32032;SDS011;31720;52.638;9.216;2023-10-09T07:18:23;42.47;;;15.07;;
32032;SDS011;31720;52.638;9.216;2023-10-09T07:21:25;42.83;;;13.85;;
32032;SDS011;31720;52.638;9.216;2023-10-09T07:24:30;41.90;;;13.18;;
32032;SDS011;31720;52.638;9.216;2023-10-09T07:27:43;40.60;;;14.75;;
32032;SDS011;31720;52.638;9.216;2023-10-09T07:30:45;45.05;;;14.25;;
32032;SDS011;31720;52.638;9.216;2023-10-09T07:33:46;45.22;;;14.95;;
32032;SDS011;31720;52.638;9.216;2023-10-09T07:37:06;48.75;;;15.43;;
32032;SDS011;31720;52.638;9.216;2023-10-09T07:40:11;44.97;;;15.02;;
32032;SDS011;31720;52.638;9.216;2023-10-09T07:43:14;43.22;;;14.32;;
32032;SDS011;31720;52.638;9.216;2023-10-09T07:46:16;45.25;;;15.68;;
32032;SDS011;31720;52.638;9.216;2023-10-09T07:49:32;40.03;;;14.48;;
32032;SDS011;31720;52.638;9.216;2023-10-09T07:52:33;36.05;;;14.90;;
32032;SDS011;31720;52.638;9.216;2023-10-09T07:55:43;41.33;;;15.25;;
32032;SDS011;31720;52.638;9.216;2023-10-09T07:58:54;48.30;;;15.55;;
32032;SDS011;31720;52.638;9.216;2023-10-09T08:02:00;48.63;;;16.15;;
32032;SDS011;31720;52.638;9.216;2023-10-09T08:05:03;46.20;;;16.52;;
32032;SDS011;31720;52.638;9.216;2023-10-09T08:08:06;55.85;;;16.73;;
32032;SDS011;31720;52.638;9.216;2023-10-09T08:11:41;44.70;;;15.85;;
32032;SDS011;31720;52.638;9.216;2023-10-09T08:14:57;48.87;;;15.97;;
32032;SDS011;31720;52.638;9.216;2023-10-09T08:18:20;41.08;;;15.20;;
32032;SDS011;31720;52.638;9.216;2023-10-09T08:21:28;47.10;;;17.53;;
32032;SDS011;31720;52.638;9.216;2023-10-09T08:24:44;44.17;;;17.23;;
32032;SDS011;31720;52.638;9.216;2023-10-09T08:27:54;52.58;;;16.40;;
32032;SDS011;31720;52.638;9.216;2023-10-09T08:30:57;53.53;;;16.80;;
32032;SDS011;31720;52.638;9.216;2023-10-09T08:34:03;42.65;;;15.82;;
32032;SDS011;31720;52.638;9.216;2023-10-09T08:37:09;41.83;;;14.50;;
32032;SDS011;31720;52.638;9.216;2023-10-09T08:40:12;53.70;;;15.65;;
32032;SDS011;31720;52.638;9.216;2023-10-09T08:43:20;46.53;;;14.88;;
32032;SDS011;31720;52.638;9.216;2023-10-09T08:46:23;47.75;;;15.60;;
32032;SDS011;31720;52.638;9.216;2023-10-09T08:49:26;40.05;;;15.25;;
32032;SDS011;31720;52.638;9.216;2023-10-09T08:52:28;51.30;;;17.08;;
32032;SDS011;31720;52.638;9.216;2023-10-09T08:55:30;46.53;;;15.75;;
32032;SDS011;31720;52.638;9.216;2023-10-09T08:58:32;40.10;;;15.25;;
32032;SDS011;31720;52.638;9.216;2023-10-09T09:01:36;49.28;;;15.60;;
32032;SDS011;31720;52.638;9.216;2023-10-09T09:04:39;47.67;;;17.05;;
32032;SDS011;31720;52.638;9.216;2023-10-09T09:07:45;47.78;;;16.80;;
32032;SDS011;31720;52.638;9.216;2023-10-09T09:10:50;45.70;;;16.95;;
32032;SDS011;31720;52.638;9.216;2023-10-09T09:14:03;51.42;;;16.83;;
32032;SDS011;31720;52.638;9.216;2023-10-09T09:17:06;52.38;;;16.45;;
32032;SDS011;31720;52.638;9.216;2023-10-09T09:20:18;52.78;;;16.15;;
32032;SDS011;31720;52.638;9.216;2023-10-09T09:23:23;48.13;;;16.73;;
32032;SDS011;31720;52.638;9.216;2023-10-09T09:26:35;44.83;;;15.07;;
32032;SDS011;31720;52.638;9.216;2023-10-09T09:29:40;37.80;;;14.05;;
32032;SDS011;31720;52.638;9.216;2023-10-09T09:32:52;45.42;;;15.65;;
32032;SDS011;31720;52.638;9.216;2023-10-09T09:36:07;44.83;;;15.52;;
32032;SDS011;31720;52.638;9.216;2023-10-09T09:39:11;38.28;;;15.88;;
32032;SDS011;31720;52.638;9.216;2023-10-09T09:42:19;38.75;;;15.55;;
32032;SDS011;31720;52.638;9.216;2023-10-09T09:45:26;44.72;;;15.27;;
32032;SDS011;31720;52.638;9.216;2023-10-09T09:48:29;51.00;;;17.10;;
32032;SDS011;31720;52.638;9.216;2023-10-09T09:51:32;41.30;;;15.02;;
32032;SDS011;31720;52.638;9.216;2023-10-09T09:54:34;52.75;;;17.05;;
32032;SDS011;31720;52.638;9.216;2023-10-09T09:57:36;36.67;;;15.30;;
32032;SDS011;31720;52.638;9.216;2023-10-09T10:00:41;43.08;;;17.63;;
32032;SDS011;31720;52.638;9.216;2023-10-09T10:03:45;50.95;;;16.50;;
32032;SDS011;31720;52.638;9.216;2023-10-09T10:06:50;42.13;;;17.42;;
32032;SDS011;31720;52.638;9.216;2023-10-09T10:09:55;39.47;;;16.20;;
32032;SDS011;31720;52.638;9.216;2023-10-09T10:12:57;40.97;;;14.95;;
32032;SDS011;31720;52.638;9.216;2023-10-09T10:16:07;41.58;;;15.52;;
32032;SDS011;31720;52.638;9.216;2023-10-09T10:19:13;39.58;;;15.70;;
32032;SDS011;31720;52.638;9.216;2023-10-09T10:22:23;45.50;;;15.40;;
32032;SDS011;31720;52.638;9.216;2023-10-09T10:25:31;41.55;;;15.27;;
32032;SDS011;31720;52.638;9.216;2023-10-09T10:28:35;43.90;;;15.35;;
32032;SDS011;31720;52.638;9.216;2023-10-09T10:31:58;43.67;;;14.70;;
32032;SDS011;31720;52.638;9.216;2023-10-09T10:35:06;39.65;;;13.88;;
32032;SDS011;31720;52.638;9.216;2023-10-09T10:38:21;39.35;;;14.40;;
32032;SDS011;31720;52.638;9.216;2023-10-09T10:41:24;42.35;;;14.40;;
32032;SDS011;31720;52.638;9.216;2023-10-09T10:44:29;39.03;;;14.85;;
32032;SDS011;31720;52.638;9.216;2023-10-09T10:47:39;37.30;;;14.30;;
32032;SDS011;31720;52.638;9.216;2023-10-09T10:50:42;37.17;;;13.93;;
32032;SDS011;31720;52.638;9.216;2023-10-09T10:53:51;39.95;;;15.60;;
32032;SDS011;31720;52.638;9.216;2023-10-09T10:56:57;41.80;;;14.93;;
32032;SDS011;31720;52.638;9.216;2023-10-09T11:00:00;35.15;;;14.65;;
32032;SDS011;31720;52.638;9.216;2023-10-09T11:03:22;35.40;;;14.43;;
32032;SDS011;31720;52.638;9.216;2023-10-09T11:06:29;32.83;;;13.43;;
32032;SDS011;31720;52.638;9.216;2023-10-09T11:09:45;38.50;;;15.77;;
32032;SDS011;31720;52.638;9.216;2023-10-09T11:13:07;34.35;;;13.45;;
32032;SDS011;31720;52.638;9.216;2023-10-09T11:16:26;38.03;;;14.30;;
32032;SDS011;31720;52.638;9.216;2023-10-09T11:19:44;40.35;;;14.15;;
32032;SDS011;31720;52.638;9.216;2023-10-09T11:22:45;28.85;;;14.32;;
32032;SDS011;31720;52.638;9.216;2023-10-09T11:26:11;37.85;;;15.32;;
32032;SDS011;31720;52.638;9.216;2023-10-09T11:29:25;37.00;;;15.20;;
32032;SDS011;31720;52.638;9.216;2023-10-09T11:32:50;41.35;;;15.07;;
32032;SDS011;31720;52.638;9.216;2023-10-09T11:35:55;36.90;;;15.25;;
32032;SDS011;31720;52.638;9.216;2023-10-09T11:38:58;33.53;;;14.85;;
32032;SDS011;31720;52.638;9.216;2023-10-09T11:42:18;39.40;;;15.63;;
32032;SDS011;31720;52.638;9.216;2023-10-09T11:45:35;30.70;;;14.98;;
32032;SDS011;31720;52.638;9.216;2023-10-09T11:48:38;31.08;;;14.70;;
32032;SDS011;31720;52.638;9.216;2023-10-09T11:51:48;35.45;;;13.00;;
32032;SDS011;31720;52.638;9.216;2023-10-09T11:55:10;27.23;;;12.70;;
32032;SDS011;31720;52.638;9.216;2023-10-09T11:58:15;29.80;;;13.27;;
32032;SDS011;31720;52.638;9.216;2023-10-09T12:01:22;24.45;;;11.82;;
32032;SDS011;31720;52.638;9.216;2023-10-09T12:04:25;24.23;;;11.68;;
32032;SDS011;31720;52.638;9.216;2023-10-09T12:07:31;31.23;;;11.30;;
32032;SDS011;31720;52.638;9.216;2023-10-09T12:10:33;29.33;;;12.52;;
32032;SDS011;31720;52.638;9.216;2023-10-09T12:13:34;27.42;;;12.27;;
32032;SDS011;31720;52.638;9.216;2023-10-09T12:16:38;25.83;;;12.48;;
32032;SDS011;31720;52.638;9.216;2023-10-09T12:19:49;24.95;;;11.25;;
32032;SDS011;31720;52.638;9.216;2023-10-09T12:22:52;27.83;;;12.27;;
32032;SDS011;31720;52.638;9.216;2023-10-09T12:25:57;32.33;;;13.05;;
32032;SDS011;31720;52.638;9.216;2023-10-09T12:28:59;28.65;;;11.38;;
32032;SDS011;31720;52.638;9.216;2023-10-09T12:32:00;33.00;;;12.20;;
32032;SDS011;31720;52.638;9.216;2023-10-09T12:35:03;25.65;;;11.43;;
32032;SDS011;31720;52.638;9.216;2023-10-09T12:38:18;24.95;;;11.55;;
32032;SDS011;31720;52.638;9.216;2023-10-09T12:41:22;27.70;;;11.43;;
32032;SDS011;31720;52.638;9.216;2023-10-09T12:44:26;24.77;;;11.95;;
32032;SDS011;31720;52.638;9.216;2023-10-09T12:47:28;22.05;;;10.25;;
32032;SDS011;31720;52.638;9.216;2023-10-09T12:50:30;25.80;;;12.23;;
32032;SDS011;31720;52.638;9.216;2023-10-09T12:53:34;21.33;;;10.15;;
32032;SDS011;31720;52.638;9.216;2023-10-09T12:56:41;25.20;;;12.10;;
32032;SDS011;31720;52.638;9.216;2023-10-09T12:59:42;26.60;;;11.18;;
32032;SDS011;31720;52.638;9.216;2023-10-09T13:02:45;20.33;;;10.00;;
32032;SDS011;31720;52.638;9.216;2023-10-09T13:05:47;25.92;;;12.07;;
32032;SDS011;31720;52.638;9.216;2023-10-09T13:08:54;25.60;;;10.88;;
32032;SDS011;31720;52.638;9.216;2023-10-09T13:11:59;20.48;;;10.02;;
32032;SDS011;31720;52.638;9.216;2023-10-09T13:15:01;21.65;;;10.27;;
32032;SDS011;31720;52.638;9.216;2023-10-09T13:18:08;24.70;;;11.13;;
32032;SDS011;31720;52.638;9.216;2023-10-09T13:21:10;23.65;;;11.05;;
32032;SDS011;31720;52.638;9.216;2023-10-09T13:24:13;22.98;;;11.20;;
32032;SDS011;31720;52.638;9.216;2023-10-09T13:27:15;16.70;;;9.15;;
32032;SDS011;31720;52.638;9.216;2023-10-09T13:30:21;15.23;;;8.70;;
32032;SDS011;31720;52.638;9.216;2023-10-09T13:33:25;19.90;;;9.35;;
32032;SDS011;31720;52.638;9.216;2023-10-09T13:36:28;15.43;;;9.05;;
32032;SDS011;31720;52.638;9.216;2023-10-09T13:39:33;16.05;;;8.10;;
32032;SDS011;31720;52.638;9.216;2023-10-09T13:42:39;17.20;;;8.88;;
32032;SDS011;31720;52.638;9.216;2023-10-09T13:45:41;18.73;;;8.57;;
32032;SDS011;31720;52.638;9.216;2023-10-09T13:48:49;17.67;;;8.52;;
32032;SDS011;31720;52.638;9.216;2023-10-09T13:51:52;13.57;;;7.85;;
32032;SDS011;31720;52.638;9.216;2023-10-09T13:54:58;15.50;;;6.57;;
32032;SDS011;31720;52.638;9.216;2023-10-09T13:58:15;12.50;;;6.47;;
32032;SDS011;31720;52.638;9.216;2023-10-09T14:01:20;10.77;;;5.90;;
32032;SDS011;31720;52.638;9.216;2023-10-09T14:04:28;10.68;;;5.55;;
32032;SDS011;31720;52.638;9.216;2023-10-09T14:07:30;10.75;;;5.60;;
32032;SDS011;31720;52.638;9.216;2023-10-09T14:10:38;8.13;;;5.30;;
32032;SDS011;31720;52.638;9.216;2023-10-09T14:13:39;9.43;;;5.60;;
32032;SDS011;31720;52.638;9.216;2023-10-09T14:16:41;9.93;;;5.10;;
32032;SDS011;31720;52.638;9.216;2023-10-09T14:19:43;9.45;;;5.22;;
32032;SDS011;31720;52.638;9.216;2023-10-09T14:22:47;9.57;;;4.60;;
32032;SDS011;31720;52.638;9.216;2023-10-09T14:25:53;11.43;;;5.13;;
32032;SDS011;31720;52.638;9.216;2023-10-09T14:28:56;9.52;;;4.93;;
32032;SDS011;31720;52.638;9.216;2023-10-09T14:31:57;9.10;;;4.78;;
32032;SDS011;31720;52.638;9.216;2023-10-09T14:35:03;9.90;;;5.45;;
32032;SDS011;31720;52.638;9.216;2023-10-09T14:38:12;9.48;;;4.95;;
32032;SDS011;31720;52.638;9.216;2023-10-09T14:41:16;6.72;;;4.38;;
32032;SDS011;31720;52.638;9.216;2023-10-09T14:44:17;5.68;;;2.85;;
32032;SDS011;31720;52.638;9.216;2023-10-09T14:47:19;9.23;;;3.40;;
32032;SDS011;31720;52.638;9.216;2023-10-09T14:50:21;6.40;;;3.08;;
32032;SDS011;31720;52.638;9.216;2023-10-09T14:53:23;7.97;;;4.50;;
32032;SDS011;31720;52.638;9.216;2023-10-09T14:56:28;7.68;;;3.15;;
32032;SDS011;31720;52.638;9.216;2023-10-09T14:59:30;5.93;;;2.70;;
32032;SDS011;31720;52.638;9.216;2023-10-09T15:02:31;4.38;;;2.38;;
32032;SDS011;31720;52.638;9.216;2023-10-09T15:05:33;5.22;;;2.30;;
32032;SDS011;31720;52.638;9.216;2023-10-09T15:08:35;3.85;;;2.30;;
32032;SDS011;31720;52.638;9.216;2023-10-09T15:11:39;5.07;;;1.98;;
32032;SDS011;31720;52.638;9.216;2023-10-09T15:14:40;3.15;;;2.20;;
32032;SDS011;31720;52.638;9.216;2023-10-09T15:17:43;10.95;;;2.30;;
32032;SDS011;31720;52.638;9.216;2023-10-09T15:20:45;5.78;;;2.25;;
32032;SDS011;31720;52.638;9.216;2023-10-09T15:23:47;4.32;;;1.83;;
32032;SDS011;31720;52.638;9.216;2023-10-09T15:26:50;8.10;;;4.93;;
32032;SDS011;31720;52.638;9.216;2023-10-09T15:29:53;12.27;;;3.05;;
32032;SDS011;31720;52.638;9.216;2023-10-09T15:32:55;15.75;;;3.30;;
32032;SDS011;31720;52.638;9.216;2023-10-09T15:35:57;6.03;;;2.78;;
32032;SDS011;31720;52.638;9.216;2023-10-09T15:38:58;9.55;;;2.35;;
32032;SDS011;31720;52.638;9.216;2023-10-09T15:42:01;10.07;;;3.58;;
32032;SDS011;31720;52.638;9.216;2023-10-09T15:45:06;9.27;;;4.85;;
32032;SDS011;31720;52.638;9.216;2023-10-09T15:48:08;14.82;;;4.80;;
32032;SDS011;31720;52.638;9.216;2023-10-09T15:51:11;9.45;;;3.30;;
32032;SDS011;31720;52.638;9.216;2023-10-09T15:54:14;9.70;;;2.95;;
32032;SDS011;31720;52.638;9.216;2023-10-09T15:57:20;10.75;;;3.47;;
32032;SDS011;31720;52.638;9.216;2023-10-09T16:00:22;5.07;;;2.25;;
32032;SDS011;31720;52.638;9.216;2023-10-09T16:03:28;8.93;;;2.97;;
32032;SDS011;31720;52.638;9.216;2023-10-09T16:06:29;6.72;;;3.33;;
32032;SDS011;31720;52.638;9.216;2023-10-09T16:09:34;7.53;;;2.20;;
32032;SDS011;31720;52.638;9.216;2023-10-09T16:12:40;4.55;;;2.00;;
32032;SDS011;31720;52.638;9.216;2023-10-09T16:15:42;7.32;;;2.65;;
32032;SDS011;31720;52.638;9.216;2023-10-09T16:18:44;4.88;;;2.38;;
32032;SDS011;31720;52.638;9.216;2023-10-09T16:21:45;9.07;;;2.58;;
32032;SDS011;31720;52.638;9.216;2023-10-09T16:24:47;8.18;;;2.75;;
32032;SDS011;31720;52.638;9.216;2023-10-09T16:27:51;8.80;;;2.92;;
32032;SDS011;31720;52.638;9.216;2023-10-09T16:30:54;12.68;;;3.20;;
32032;SDS011;31720;52.638;9.216;2023-10-09T16:33:57;8.63;;;3.85;;
32032;SDS011;31720;52.638;9.216;2023-10-09T16:36:58;5.70;;;2.90;;
32032;SDS011;31720;52.638;9.216;2023-10-09T16:40:00;8.43;;;3.83;;
32032;SDS011;31720;52.638;9.216;2023-10-09T16:43:07;5.13;;;2.92;;
32032;SDS011;31720;52.638;9.216;2023-10-09T16:46:13;8.65;;;4.30;;
32032;SDS011;31720;52.638;9.216;2023-10-09T16:49:17;4.03;;;3.28;;
32032;SDS011;31720;52.638;9.216;2023-10-09T16:52:18;10.05;;;3.63;;
32032;SDS011;31720;52.638;9.216;2023-10-09T16:55:20;5.22;;;3.53;;
32032;SDS011;31720;52.638;9.216;2023-10-09T16:58:23;11.82;;;4.40;;
32032;SDS011;31720;52.638;9.216;2023-10-09T17:01:25;11.23;;;4.00;;
32032;SDS011;31720;52.638;9.216;2023-10-09T17:04:27;9.80;;;4.07;;
32032;SDS011;31720;52.638;9.216;2023-10-09T17:07:29;14.02;;;4.85;;
32032;SDS011;31720;52.638;9.216;2023-10-09T17:10:34;11.50;;;4.40;;
32032;SDS011;31720;52.638;9.216;2023-10-09T17:13:39;9.63;;;4.68;;
32032;SDS011;31720;52.638;9.216;2023-10-09T17:16:44;5.07;;;3.35;;
32032;SDS011;31720;52.638;9.216;2023-10-09T17:19:47;7.43;;;3.38;;
32032;SDS011;31720;52.638;9.216;2023-10-09T17:22:48;8.65;;;3.95;;
32032;SDS011;31720;52.638;9.216;2023-10-09T17:25:50;6.32;;;3.05;;
32032;SDS011;31720;52.638;9.216;2023-10-09T17:28:59;5.78;;;2.70;;
32032;SDS011;31720;52.638;9.216;2023-10-09T17:32:00;6.15;;;2.35;;
32032;SDS011;31720;52.638;9.216;2023-10-09T17:35:02;10.25;;;2.30;;
32032;SDS011;31720;52.638;9.216;2023-10-09T17:38:04;3.50;;;2.35;;
32032;SDS011;31720;52.638;9.216;2023-10-09T17:41:07;5.03;;;1.85;;
32032;SDS011;31720;52.638;9.216;2023-10-09T17:44:11;4.55;;;2.50;;
32032;SDS011;31720;52.638;9.216;2023-10-09T17:47:15;6.03;;;2.10;;
32032;SDS011;31720;52.638;9.216;2023-10-09T17:50:17;8.20;;;2.05;;
32032;SDS011;31720;52.638;9.216;2023-10-09T17:53:21;9.68;;;2.80;;
32032;SDS011;31720;52.638;9.216;2023-10-09T17:56:23;7.05;;;2.33;;
32032;SDS011;31720;52.638;9.216;2023-10-09T17:59:27;3.50;;;1.90;;
32032;SDS011;31720;52.638;9.216;2023-10-09T18:02:28;7.07;;;2.22;;
32032;SDS011;31720;52.638;9.216;2023-10-09T18:05:30;5.53;;;2.58;;
32032;SDS011;31720;52.638;9.216;2023-10-09T18:08:33;6.30;;;2.15;;
32032;SDS011;31720;52.638;9.216;2023-10-09T18:11:36;5.65;;;2.25;;
32032;SDS011;31720;52.638;9.216;2023-10-09T18:14:39;8.63;;;2.33;;
32032;SDS011;31720;52.638;9.216;2023-10-09T18:17:40;5.55;;;1.67;;
32032;SDS011;31720;52.638;9.216;2023-10-09T18:20:44;5.43;;;2.28;;
32032;SDS011;31720;52.638;9.216;2023-10-09T18:23:45;3.33;;;1.88;;
32032;SDS011;31720;52.638;9.216;2023-10-09T18:26:47;4.93;;;2.17;;
32032;SDS011;31720;52.638;9.216;2023-10-09T18:29:51;5.85;;;1.73;;
32032;SDS011;31720;52.638;9.216;2023-10-09T18:32:52;3.28;;;1.40;;